sensor_id;sensor_type;location;lat;lon;timestamp;P1;durP1;ratioP1;P2;durP2;ratioP2
11533;SDS011;5823;50.588;8.462;2023-04-24T00:02:02;0.10;;;0.10;;
11533;SDS011;5823;50.588;8.462;2023-04-24T00:04:28;0.00;;;0.00;;
11533;SDS011;5823;50.588;8.462;2023-04-24T00:06:55;0.00;;;0.00;;
11533;SDS011;5823;50.588;8.462;2023-04-24T00:09:22;0.03;;;0.03;;
11533;SDS011;5823;50.588;8.462;2023-04-24T00:11:49;0.10;;;0.10;;
11533;SDS011;5823;50.588;8.462;2023-04-24T00:14:16;0.10;;;0.10;;
11533;SDS011;5823;50.588;8.462;2023-04-24T00:16:42;0.00;;;0.00;;
11533;SDS011;5823;50.588;8.462;2023-04-24T00:19:08;0.00;;;0.00;;
11533;SDS011;5823;50.588;8.462;2023-04-24T00:21:36;0.00;;;0.00;;
11533;SDS011;5823;50.588;8.462;2023-04-24T00:24:02;0.00;;;0.00;;
11533;SDS011;5823;50.588;8.462;2023-04-24T00:26:28;0.00;;;0.00;;
11533;SDS011;5823;50.588;8.462;2023-04-24T00:28:56;0.00;;;0.00;;
11533;SDS011;5823;50.588;8.462;2023-04-24T00:31:22;0.03;;;0.03;;
11533;SDS011;5823;50.588;8.462;2023-04-24T00:33:49;0.10;;;0.10;;
11533;SDS011;5823;50.588;8.462;2023-04-24T00:36:15;0.15;;;0.10;;
11533;SDS011;5823;50.588;8.462;2023-04-24T00:38:41;0.05;;;0.05;;
11533;SDS011;5823;50.588;8.462;2023-04-24T00:41:07;0.00;;;0.00;;
11533;SDS011;5823;50.588;8.462;2023-04-24T00:43:34;0.10;;;0.10;;
11533;SDS011;5823;50.588;8.462;2023-04-24T00:46:01;0.00;;;0.00;;
11533;SDS011;5823;50.588;8.462;2023-04-24T00:48:27;0.10;;;0.10;;
11533;SDS011;5823;50.588;8.462;2023-04-24T00:50:54;0.10;;;0.10;;
11533;SDS011;5823;50.588;8.462;2023-04-24T00:53:20;0.10;;;0.10;;
11533;SDS011;5823;50.588;8.462;2023-04-24T00:55:46;0.10;;;0.10;;
11533;SDS011;5823;50.588;8.462;2023-04-24T00:58:13;0.00;;;0.00;;
11533;SDS011;5823;50.588;8.462;2023-04-24T01:00:39;0.10;;;0.10;;
11533;SDS011;5823;50.588;8.462;2023-04-24T01:03:07;0.10;;;0.10;;
11533;SDS011;5823;50.588;8.462;2023-04-24T01:05:34;0.00;;;0.00;;
11533;SDS011;5823;50.588;8.462;2023-04-24T01:08:00;0.10;;;0.10;;
11533;SDS011;5823;50.588;8.462;2023-04-24T01:10:27;0.17;;;0.17;;
11533;SDS011;5823;50.588;8.462;2023-04-24T01:12:55;0.00;;;0.00;;
11533;SDS011;5823;50.588;8.462;2023-04-24T01:15:21;0.00;;;0.00;;
11533;SDS011;5823;50.588;8.462;2023-04-24T01:17:47;0.10;;;0.10;;
11533;SDS011;5823;50.588;8.462;2023-04-24T01:20:16;0.10;;;0.10;;
11533;SDS011;5823;50.588;8.462;2023-04-24T01:22:44;0.03;;;0.03;;
11533;SDS011;5823;50.588;8.462;2023-04-24T01:25:10;0.05;;;0.05;;
11533;SDS011;5823;50.588;8.462;2023-04-24T01:27:37;0.20;;;0.15;;
11533;SDS011;5823;50.588;8.462;2023-04-24T01:30:03;0.03;;;0.03;;
11533;SDS011;5823;50.588;8.462;2023-04-24T01:32:30;0.00;;;0.00;;
11533;SDS011;5823;50.588;8.462;2023-04-24T01:34:56;0.00;;;0.00;;
11533;SDS011;5823;50.588;8.462;2023-04-24T01:37:22;0.00;;;0.00;;
11533;SDS011;5823;50.588;8.462;2023-04-24T01:39:50;0.10;;;0.10;;
11533;SDS011;5823;50.588;8.462;2023-04-24T01:42:16;0.05;;;0.05;;
11533;SDS011;5823;50.588;8.462;2023-04-24T01:44:43;0.10;;;0.10;;
11533;SDS011;5823;50.588;8.462;2023-04-24T01:47:09;0.10;;;0.10;;
11533;SDS011;5823;50.588;8.462;2023-04-24T01:49:36;0.00;;;0.00;;
11533;SDS011;5823;50.588;8.462;2023-04-24T01:52:03;0.00;;;0.00;;
11533;SDS011;5823;50.588;8.462;2023-04-24T01:54:30;0.08;;;0.08;;
11533;SDS011;5823;50.588;8.462;2023-04-24T01:56:57;0.10;;;0.10;;
11533;SDS011;5823;50.588;8.462;2023-04-24T01:59:23;0.10;;;0.10;;
11533;SDS011;5823;50.588;8.462;2023-04-24T02:01:51;0.00;;;0.00;;
11533;SDS011;5823;50.588;8.462;2023-04-24T02:04:17;0.03;;;0.03;;
11533;SDS011;5823;50.588;8.462;2023-04-24T02:06:43;0.10;;;0.10;;
11533;SDS011;5823;50.588;8.462;2023-04-24T02:09:10;0.00;;;0.00;;
11533;SDS011;5823;50.588;8.462;2023-04-24T02:11:36;0.10;;;0.10;;
11533;SDS011;5823;50.588;8.462;2023-04-24T02:14:04;0.15;;;0.15;;
11533;SDS011;5823;50.588;8.462;2023-04-24T02:16:30;0.17;;;0.17;;
11533;SDS011;5823;50.588;8.462;2023-04-24T02:18:57;0.10;;;0.10;;
11533;SDS011;5823;50.588;8.462;2023-04-24T02:21:23;0.00;;;0.00;;
11533;SDS011;5823;50.588;8.462;2023-04-24T02:23:50;0.00;;;0.00;;
11533;SDS011;5823;50.588;8.462;2023-04-24T02:26:16;0.52;;;0.20;;
11533;SDS011;5823;50.588;8.462;2023-04-24T02:28:43;0.20;;;0.20;;
11533;SDS011;5823;50.588;8.462;2023-04-24T02:31:11;0.10;;;0.10;;
11533;SDS011;5823;50.588;8.462;2023-04-24T02:33:37;0.05;;;0.05;;
11533;SDS011;5823;50.588;8.462;2023-04-24T02:36:03;0.10;;;0.10;;
11533;SDS011;5823;50.588;8.462;2023-04-24T02:38:29;0.00;;;0.00;;
11533;SDS011;5823;50.588;8.462;2023-04-24T02:40:56;0.10;;;0.10;;
11533;SDS011;5823;50.588;8.462;2023-04-24T02:43:22;0.10;;;0.10;;
11533;SDS011;5823;50.588;8.462;2023-04-24T02:45:48;0.00;;;0.00;;
11533;SDS011;5823;50.588;8.462;2023-04-24T02:48:16;0.08;;;0.08;;
11533;SDS011;5823;50.588;8.462;2023-04-24T02:50:43;0.00;;;0.00;;
11533;SDS011;5823;50.588;8.462;2023-04-24T02:53:09;0.10;;;0.10;;
11533;SDS011;5823;50.588;8.462;2023-04-24T02:55:36;0.05;;;0.05;;
11533;SDS011;5823;50.588;8.462;2023-04-24T02:58:02;0.00;;;0.00;;
11533;SDS011;5823;50.588;8.462;2023-04-24T03:00:28;0.10;;;0.10;;
11533;SDS011;5823;50.588;8.462;2023-04-24T03:02:55;0.10;;;0.10;;
11533;SDS011;5823;50.588;8.462;2023-04-24T03:05:22;0.10;;;0.05;;
11533;SDS011;5823;50.588;8.462;2023-04-24T03:07:48;0.00;;;0.00;;
11533;SDS011;5823;50.588;8.462;2023-04-24T03:10:15;0.03;;;0.03;;
11533;SDS011;5823;50.588;8.462;2023-04-24T03:12:41;0.00;;;0.00;;
11533;SDS011;5823;50.588;8.462;2023-04-24T03:15:08;0.10;;;0.10;;
11533;SDS011;5823;50.588;8.462;2023-04-24T03:17:34;0.00;;;0.00;;
11533;SDS011;5823;50.588;8.462;2023-04-24T03:20:01;0.00;;;0.00;;
11533;SDS011;5823;50.588;8.462;2023-04-24T03:22:31;0.00;;;0.00;;
11533;SDS011;5823;50.588;8.462;2023-04-24T03:24:58;0.10;;;0.10;;
11533;SDS011;5823;50.588;8.462;2023-04-24T03:27:24;0.00;;;0.00;;
11533;SDS011;5823;50.588;8.462;2023-04-24T03:29:51;0.00;;;0.00;;
11533;SDS011;5823;50.588;8.462;2023-04-24T03:32:20;0.08;;;0.08;;
11533;SDS011;5823;50.588;8.462;2023-04-24T03:34:46;0.00;;;0.00;;
11533;SDS011;5823;50.588;8.462;2023-04-24T03:37:12;0.10;;;0.10;;
11533;SDS011;5823;50.588;8.462;2023-04-24T03:39:40;0.10;;;0.10;;
11533;SDS011;5823;50.588;8.462;2023-04-24T03:42:06;0.10;;;0.10;;
11533;SDS011;5823;50.588;8.462;2023-04-24T03:44:33;0.03;;;0.03;;
11533;SDS011;5823;50.588;8.462;2023-04-24T03:46:59;0.20;;;0.15;;
11533;SDS011;5823;50.588;8.462;2023-04-24T03:49:26;0.00;;;0.00;;
11533;SDS011;5823;50.588;8.462;2023-04-24T03:51:52;0.00;;;0.00;;
11533;SDS011;5823;50.588;8.462;2023-04-24T03:54:18;0.00;;;0.00;;
11533;SDS011;5823;50.588;8.462;2023-04-24T03:56:46;0.10;;;0.05;;
11533;SDS011;5823;50.588;8.462;2023-04-24T03:59:12;0.10;;;0.10;;
11533;SDS011;5823;50.588;8.462;2023-04-24T04:01:38;0.03;;;0.03;;
11533;SDS011;5823;50.588;8.462;2023-04-24T04:04:05;0.10;;;0.10;;
11533;SDS011;5823;50.588;8.462;2023-04-24T04:06:31;0.10;;;0.10;;
11533;SDS011;5823;50.588;8.462;2023-04-24T04:08:57;0.00;;;0.00;;
11533;SDS011;5823;50.588;8.462;2023-04-24T04:11:23;0.03;;;0.03;;
11533;SDS011;5823;50.588;8.462;2023-04-24T04:13:51;0.00;;;0.00;;
11533;SDS011;5823;50.588;8.462;2023-04-24T04:16:17;0.10;;;0.10;;
11533;SDS011;5823;50.588;8.462;2023-04-24T04:18:44;0.15;;;0.15;;
11533;SDS011;5823;50.588;8.462;2023-04-24T04:21:10;0.20;;;0.10;;
11533;SDS011;5823;50.588;8.462;2023-04-24T04:23:36;0.03;;;0.03;;
11533;SDS011;5823;50.588;8.462;2023-04-24T04:26:03;0.00;;;0.00;;
11533;SDS011;5823;50.588;8.462;2023-04-24T04:28:30;0.10;;;0.10;;
11533;SDS011;5823;50.588;8.462;2023-04-24T04:30:57;1.38;;;0.25;;
11533;SDS011;5823;50.588;8.462;2023-04-24T04:33:24;0.10;;;0.10;;
11533;SDS011;5823;50.588;8.462;2023-04-24T04:35:51;0.20;;;0.20;;
11533;SDS011;5823;50.588;8.462;2023-04-24T04:38:17;0.10;;;0.10;;
11533;SDS011;5823;50.588;8.462;2023-04-24T04:40:44;0.05;;;0.05;;
11533;SDS011;5823;50.588;8.462;2023-04-24T04:43:10;0.00;;;0.00;;
11533;SDS011;5823;50.588;8.462;2023-04-24T04:45:38;0.10;;;0.10;;
11533;SDS011;5823;50.588;8.462;2023-04-24T04:48:06;0.00;;;0.00;;
11533;SDS011;5823;50.588;8.462;2023-04-24T04:50:33;0.00;;;0.00;;
11533;SDS011;5823;50.588;8.462;2023-04-24T04:53:00;0.10;;;0.10;;
11533;SDS011;5823;50.588;8.462;2023-04-24T04:55:26;0.00;;;0.00;;
11533;SDS011;5823;50.588;8.462;2023-04-24T04:57:52;0.00;;;0.00;;
11533;SDS011;5823;50.588;8.462;2023-04-24T05:00:20;0.10;;;0.10;;
11533;SDS011;5823;50.588;8.462;2023-04-24T05:02:46;0.00;;;0.00;;
11533;SDS011;5823;50.588;8.462;2023-04-24T05:05:14;0.17;;;0.17;;
11533;SDS011;5823;50.588;8.462;2023-04-24T05:07:42;0.20;;;0.20;;
11533;SDS011;5823;50.588;8.462;2023-04-24T05:10:08;0.10;;;0.10;;
11533;SDS011;5823;50.588;8.462;2023-04-24T05:12:34;0.08;;;0.08;;
11533;SDS011;5823;50.588;8.462;2023-04-24T05:15:01;0.10;;;0.10;;
11533;SDS011;5823;50.588;8.462;2023-04-24T05:17:27;0.05;;;0.05;;
11533;SDS011;5823;50.588;8.462;2023-04-24T05:19:54;0.00;;;0.00;;
11533;SDS011;5823;50.588;8.462;2023-04-24T05:22:21;0.28;;;0.10;;
11533;SDS011;5823;50.588;8.462;2023-04-24T05:24:48;0.10;;;0.10;;
11533;SDS011;5823;50.588;8.462;2023-04-24T05:27:15;0.17;;;0.17;;
11533;SDS011;5823;50.588;8.462;2023-04-24T05:29:41;0.22;;;0.20;;
11533;SDS011;5823;50.588;8.462;2023-04-24T05:32:08;0.20;;;0.20;;
11533;SDS011;5823;50.588;8.462;2023-04-24T05:34:34;0.10;;;0.10;;
11533;SDS011;5823;50.588;8.462;2023-04-24T05:37:01;0.73;;;0.65;;
11533;SDS011;5823;50.588;8.462;2023-04-24T05:39:29;0.63;;;0.50;;
11533;SDS011;5823;50.588;8.462;2023-04-24T05:41:55;0.20;;;0.20;;
11533;SDS011;5823;50.588;8.462;2023-04-24T05:44:23;0.47;;;0.47;;
11533;SDS011;5823;50.588;8.462;2023-04-24T05:46:49;0.30;;;0.30;;
11533;SDS011;5823;50.588;8.462;2023-04-24T05:49:15;0.10;;;0.10;;
11533;SDS011;5823;50.588;8.462;2023-04-24T05:51:41;0.30;;;0.30;;
11533;SDS011;5823;50.588;8.462;2023-04-24T05:54:08;0.10;;;0.10;;
11533;SDS011;5823;50.588;8.462;2023-04-24T05:56:38;0.20;;;0.20;;
11533;SDS011;5823;50.588;8.462;2023-04-24T05:59:04;0.30;;;0.30;;
11533;SDS011;5823;50.588;8.462;2023-04-24T06:01:30;0.30;;;0.30;;
11533;SDS011;5823;50.588;8.462;2023-04-24T06:03:57;0.30;;;0.30;;
11533;SDS011;5823;50.588;8.462;2023-04-24T06:06:23;0.32;;;0.32;;
11533;SDS011;5823;50.588;8.462;2023-04-24T06:08:51;0.40;;;0.40;;
11533;SDS011;5823;50.588;8.462;2023-04-24T06:11:17;0.20;;;0.20;;
11533;SDS011;5823;50.588;8.462;2023-04-24T06:13:45;0.40;;;0.40;;
11533;SDS011;5823;50.588;8.462;2023-04-24T06:16:11;0.20;;;0.20;;
11533;SDS011;5823;50.588;8.462;2023-04-24T06:18:38;0.20;;;0.20;;
11533;SDS011;5823;50.588;8.462;2023-04-24T06:21:04;0.20;;;0.20;;
11533;SDS011;5823;50.588;8.462;2023-04-24T06:23:31;0.40;;;0.40;;
11533;SDS011;5823;50.588;8.462;2023-04-24T06:25:57;0.20;;;0.20;;
11533;SDS011;5823;50.588;8.462;2023-04-24T06:28:24;0.20;;;0.20;;
11533;SDS011;5823;50.588;8.462;2023-04-24T06:30:51;0.20;;;0.20;;
11533;SDS011;5823;50.588;8.462;2023-04-24T06:33:18;0.10;;;0.10;;
11533;SDS011;5823;50.588;8.462;2023-04-24T06:35:44;0.20;;;0.20;;
11533;SDS011;5823;50.588;8.462;2023-04-24T06:38:10;0.28;;;0.28;;
11533;SDS011;5823;50.588;8.462;2023-04-24T06:40:36;0.40;;;0.40;;
11533;SDS011;5823;50.588;8.462;2023-04-24T06:43:03;0.45;;;0.45;;
11533;SDS011;5823;50.588;8.462;2023-04-24T06:45:29;0.40;;;0.40;;
11533;SDS011;5823;50.588;8.462;2023-04-24T06:47:57;0.70;;;0.70;;
11533;SDS011;5823;50.588;8.462;2023-04-24T06:50:23;0.60;;;0.60;;
11533;SDS011;5823;50.588;8.462;2023-04-24T06:52:50;0.38;;;0.38;;
11533;SDS011;5823;50.588;8.462;2023-04-24T06:55:16;0.60;;;0.60;;
11533;SDS011;5823;50.588;8.462;2023-04-24T06:57:42;0.22;;;0.22;;
11533;SDS011;5823;50.588;8.462;2023-04-24T07:00:10;0.30;;;0.30;;
11533;SDS011;5823;50.588;8.462;2023-04-24T07:02:36;0.43;;;0.43;;
11533;SDS011;5823;50.588;8.462;2023-04-24T07:05:04;0.50;;;0.50;;
11533;SDS011;5823;50.588;8.462;2023-04-24T07:07:31;0.80;;;0.80;;
11533;SDS011;5823;50.588;8.462;2023-04-24T07:09:58;0.50;;;0.50;;
11533;SDS011;5823;50.588;8.462;2023-04-24T07:12:24;0.57;;;0.57;;
11533;SDS011;5823;50.588;8.462;2023-04-24T07:14:50;0.90;;;0.90;;
11533;SDS011;5823;50.588;8.462;2023-04-24T07:17:17;0.80;;;0.80;;
11533;SDS011;5823;50.588;8.462;2023-04-24T07:19:43;0.85;;;0.80;;
11533;SDS011;5823;50.588;8.462;2023-04-24T07:22:10;0.68;;;0.68;;
11533;SDS011;5823;50.588;8.462;2023-04-24T07:24:41;0.60;;;0.60;;
11533;SDS011;5823;50.588;8.462;2023-04-24T07:27:08;0.80;;;0.80;;
11533;SDS011;5823;50.588;8.462;2023-04-24T07:29:34;0.77;;;0.77;;
11533;SDS011;5823;50.588;8.462;2023-04-24T07:32:00;0.80;;;0.80;;
11533;SDS011;5823;50.588;8.462;2023-04-24T07:34:27;0.60;;;0.60;;
11533;SDS011;5823;50.588;8.462;2023-04-24T07:36:53;0.50;;;0.50;;
11533;SDS011;5823;50.588;8.462;2023-04-24T07:39:20;0.85;;;0.80;;
11533;SDS011;5823;50.588;8.462;2023-04-24T07:41:47;0.50;;;0.50;;
11533;SDS011;5823;50.588;8.462;2023-04-24T07:44:13;0.95;;;0.93;;
11533;SDS011;5823;50.588;8.462;2023-04-24T07:46:39;0.40;;;0.40;;
11533;SDS011;5823;50.588;8.462;2023-04-24T07:49:06;0.70;;;0.70;;
11533;SDS011;5823;50.588;8.462;2023-04-24T07:51:32;2.50;;;0.70;;
11533;SDS011;5823;50.588;8.462;2023-04-24T07:54:03;0.40;;;0.40;;
11533;SDS011;5823;50.588;8.462;2023-04-24T07:56:30;0.82;;;0.75;;
11533;SDS011;5823;50.588;8.462;2023-04-24T07:58:57;0.68;;;0.68;;
11533;SDS011;5823;50.588;8.462;2023-04-24T08:01:23;1.00;;;1.00;;
11533;SDS011;5823;50.588;8.462;2023-04-24T08:03:50;0.82;;;0.82;;
11533;SDS011;5823;50.588;8.462;2023-04-24T08:06:16;1.73;;;0.70;;
11533;SDS011;5823;50.588;8.462;2023-04-24T08:08:42;0.60;;;0.60;;
11533;SDS011;5823;50.588;8.462;2023-04-24T08:11:08;0.50;;;0.50;;
11533;SDS011;5823;50.588;8.462;2023-04-24T08:13:36;0.60;;;0.60;;
11533;SDS011;5823;50.588;8.462;2023-04-24T08:16:02;0.60;;;0.60;;
11533;SDS011;5823;50.588;8.462;2023-04-24T08:18:28;0.30;;;0.30;;
11533;SDS011;5823;50.588;8.462;2023-04-24T08:20:55;0.30;;;0.30;;
11533;SDS011;5823;50.588;8.462;2023-04-24T08:23:26;0.50;;;0.50;;
11533;SDS011;5823;50.588;8.462;2023-04-24T08:25:52;0.68;;;0.68;;
11533;SDS011;5823;50.588;8.462;2023-04-24T08:28:18;0.70;;;0.70;;
11533;SDS011;5823;50.588;8.462;2023-04-24T08:30:46;0.50;;;0.50;;
11533;SDS011;5823;50.588;8.462;2023-04-24T08:33:13;0.50;;;0.50;;
11533;SDS011;5823;50.588;8.462;2023-04-24T08:35:39;0.50;;;0.50;;
11533;SDS011;5823;50.588;8.462;2023-04-24T08:38:05;0.25;;;0.25;;
11533;SDS011;5823;50.588;8.462;2023-04-24T08:40:32;0.70;;;0.70;;
11533;SDS011;5823;50.588;8.462;2023-04-24T08:43:00;0.47;;;0.47;;
11533;SDS011;5823;50.588;8.462;2023-04-24T08:45:26;0.40;;;0.40;;
11533;SDS011;5823;50.588;8.462;2023-04-24T08:47:54;0.65;;;0.57;;
11533;SDS011;5823;50.588;8.462;2023-04-24T08:50:20;0.65;;;0.50;;
11533;SDS011;5823;50.588;8.462;2023-04-24T08:52:47;0.30;;;0.30;;
11533;SDS011;5823;50.588;8.462;2023-04-24T08:55:13;0.30;;;0.30;;
11533;SDS011;5823;50.588;8.462;2023-04-24T08:57:41;0.30;;;0.30;;
11533;SDS011;5823;50.588;8.462;2023-04-24T09:00:10;0.38;;;0.38;;
11533;SDS011;5823;50.588;8.462;2023-04-24T09:02:36;0.10;;;0.10;;
11533;SDS011;5823;50.588;8.462;2023-04-24T09:05:06;0.10;;;0.10;;
11533;SDS011;5823;50.588;8.462;2023-04-24T09:07:34;0.70;;;0.70;;
11533;SDS011;5823;50.588;8.462;2023-04-24T09:10:02;0.22;;;0.22;;
11533;SDS011;5823;50.588;8.462;2023-04-24T09:12:28;0.25;;;0.20;;
11533;SDS011;5823;50.588;8.462;2023-04-24T09:14:54;0.28;;;0.28;;
11533;SDS011;5823;50.588;8.462;2023-04-24T09:17:21;0.40;;;0.40;;
11533;SDS011;5823;50.588;8.462;2023-04-24T09:19:48;0.47;;;0.47;;
11533;SDS011;5823;50.588;8.462;2023-04-24T09:22:16;0.28;;;0.28;;
11533;SDS011;5823;50.588;8.462;2023-04-24T09:24:42;0.38;;;0.38;;
11533;SDS011;5823;50.588;8.462;2023-04-24T09:27:08;0.28;;;0.28;;
11533;SDS011;5823;50.588;8.462;2023-04-24T09:29:37;0.32;;;0.32;;
11533;SDS011;5823;50.588;8.462;2023-04-24T09:32:17;1.70;;;1.17;;
11533;SDS011;5823;50.588;8.462;2023-04-24T09:34:43;1.65;;;1.20;;
11533;SDS011;5823;50.588;8.462;2023-04-24T09:37:15;1.17;;;1.00;;
11533;SDS011;5823;50.588;8.462;2023-04-24T09:39:44;0.90;;;0.77;;
11533;SDS011;5823;50.588;8.462;2023-04-24T09:42:10;0.90;;;0.70;;
11533;SDS011;5823;50.588;8.462;2023-04-24T09:44:36;0.80;;;0.80;;
11533;SDS011;5823;50.588;8.462;2023-04-24T09:47:03;0.47;;;0.45;;
11533;SDS011;5823;50.588;8.462;2023-04-24T09:49:34;0.47;;;0.47;;
11533;SDS011;5823;50.588;8.462;2023-04-24T09:52:04;0.43;;;0.43;;
11533;SDS011;5823;50.588;8.462;2023-04-24T09:54:32;0.45;;;0.45;;
11533;SDS011;5823;50.588;8.462;2023-04-24T09:56:58;0.50;;;0.50;;
11533;SDS011;5823;50.588;8.462;2023-04-24T09:59:25;0.45;;;0.40;;
11533;SDS011;5823;50.588;8.462;2023-04-24T10:01:51;0.50;;;0.50;;
11533;SDS011;5823;50.588;8.462;2023-04-24T10:04:18;0.63;;;0.63;;
11533;SDS011;5823;50.588;8.462;2023-04-24T10:06:44;0.40;;;0.40;;
11533;SDS011;5823;50.588;8.462;2023-04-24T10:09:10;0.47;;;0.47;;
11533;SDS011;5823;50.588;8.462;2023-04-24T10:11:41;0.40;;;0.40;;
11533;SDS011;5823;50.588;8.462;2023-04-24T10:14:07;0.25;;;0.25;;
11533;SDS011;5823;50.588;8.462;2023-04-24T10:16:35;0.17;;;0.17;;
11533;SDS011;5823;50.588;8.462;2023-04-24T10:19:02;0.22;;;0.22;;
11533;SDS011;5823;50.588;8.462;2023-04-24T10:21:28;0.30;;;0.30;;
11533;SDS011;5823;50.588;8.462;2023-04-24T10:23:55;0.00;;;0.00;;
11533;SDS011;5823;50.588;8.462;2023-04-24T10:26:21;0.25;;;0.25;;
11533;SDS011;5823;50.588;8.462;2023-04-24T10:28:49;0.10;;;0.10;;
11533;SDS011;5823;50.588;8.462;2023-04-24T10:31:16;0.10;;;0.10;;
11533;SDS011;5823;50.588;8.462;2023-04-24T10:33:43;0.15;;;0.15;;
11533;SDS011;5823;50.588;8.462;2023-04-24T10:36:11;0.15;;;0.15;;
11533;SDS011;5823;50.588;8.462;2023-04-24T10:38:38;0.28;;;0.28;;
11533;SDS011;5823;50.588;8.462;2023-04-24T10:41:07;0.40;;;0.32;;
11533;SDS011;5823;50.588;8.462;2023-04-24T10:43:34;0.10;;;0.10;;
11533;SDS011;5823;50.588;8.462;2023-04-24T10:46:02;0.00;;;0.00;;
11533;SDS011;5823;50.588;8.462;2023-04-24T10:48:28;0.28;;;0.28;;
11533;SDS011;5823;50.588;8.462;2023-04-24T10:50:55;0.20;;;0.20;;
11533;SDS011;5823;50.588;8.462;2023-04-24T10:53:22;0.03;;;0.03;;
11533;SDS011;5823;50.588;8.462;2023-04-24T10:55:50;0.00;;;0.00;;
11533;SDS011;5823;50.588;8.462;2023-04-24T10:58:16;0.10;;;0.10;;
11533;SDS011;5823;50.588;8.462;2023-04-24T11:00:43;0.10;;;0.10;;
11533;SDS011;5823;50.588;8.462;2023-04-24T11:03:23;0.00;;;0.00;;
11533;SDS011;5823;50.588;8.462;2023-04-24T11:05:51;0.10;;;0.10;;
11533;SDS011;5823;50.588;8.462;2023-04-24T11:08:21;0.00;;;0.00;;
11533;SDS011;5823;50.588;8.462;2023-04-24T11:10:54;0.17;;;0.17;;
11533;SDS011;5823;50.588;8.462;2023-04-24T11:13:21;0.17;;;0.17;;
11533;SDS011;5823;50.588;8.462;2023-04-24T11:15:58;0.10;;;0.10;;
11533;SDS011;5823;50.588;8.462;2023-04-24T11:18:39;0.08;;;0.08;;
11533;SDS011;5823;50.588;8.462;2023-04-24T11:21:10;0.10;;;0.10;;
11533;SDS011;5823;50.588;8.462;2023-04-24T11:23:36;0.10;;;0.10;;
11533;SDS011;5823;50.588;8.462;2023-04-24T11:26:12;0.03;;;0.03;;
11533;SDS011;5823;50.588;8.462;2023-04-24T11:28:43;0.00;;;0.00;;
11533;SDS011;5823;50.588;8.462;2023-04-24T11:33:56;0.10;;;0.10;;
11533;SDS011;5823;50.588;8.462;2023-04-24T11:36:22;0.00;;;0.00;;
11533;SDS011;5823;50.588;8.462;2023-04-24T11:38:49;0.10;;;0.10;;
11533;SDS011;5823;50.588;8.462;2023-04-24T11:41:15;0.22;;;0.22;;
11533;SDS011;5823;50.588;8.462;2023-04-24T11:43:41;0.20;;;0.20;;
11533;SDS011;5823;50.588;8.462;2023-04-24T11:46:08;0.17;;;0.17;;
11533;SDS011;5823;50.588;8.462;2023-04-24T11:48:34;0.10;;;0.10;;
11533;SDS011;5823;50.588;8.462;2023-04-24T11:51:06;0.10;;;0.10;;
11533;SDS011;5823;50.588;8.462;2023-04-24T11:53:33;0.10;;;0.10;;
11533;SDS011;5823;50.588;8.462;2023-04-24T11:56:02;0.20;;;0.15;;
11533;SDS011;5823;50.588;8.462;2023-04-24T11:58:28;0.10;;;0.10;;
11533;SDS011;5823;50.588;8.462;2023-04-24T12:00:57;0.15;;;0.15;;
11533;SDS011;5823;50.588;8.462;2023-04-24T12:03:24;0.15;;;0.15;;
11533;SDS011;5823;50.588;8.462;2023-04-24T12:05:50;0.10;;;0.10;;
11533;SDS011;5823;50.588;8.462;2023-04-24T12:08:27;0.08;;;0.08;;
11533;SDS011;5823;50.588;8.462;2023-04-24T12:10:54;0.10;;;0.10;;
11533;SDS011;5823;50.588;8.462;2023-04-24T12:13:20;0.10;;;0.10;;
11533;SDS011;5823;50.588;8.462;2023-04-24T12:15:47;0.20;;;0.20;;
11533;SDS011;5823;50.588;8.462;2023-04-24T12:18:13;0.20;;;0.20;;
11533;SDS011;5823;50.588;8.462;2023-04-24T12:20:41;0.30;;;0.30;;
11533;SDS011;5823;50.588;8.462;2023-04-24T12:23:08;0.30;;;0.30;;
11533;SDS011;5823;50.588;8.462;2023-04-24T12:25:35;0.47;;;0.40;;
11533;SDS011;5823;50.588;8.462;2023-04-24T12:28:11;1.25;;;0.70;;
11533;SDS011;5823;50.588;8.462;2023-04-24T12:30:39;0.50;;;0.50;;
11533;SDS011;5823;50.588;8.462;2023-04-24T12:33:05;0.43;;;0.43;;
11533;SDS011;5823;50.588;8.462;2023-04-24T12:35:32;0.50;;;0.50;;
11533;SDS011;5823;50.588;8.462;2023-04-24T12:38:05;0.40;;;0.40;;
11533;SDS011;5823;50.588;8.462;2023-04-24T12:40:31;0.32;;;0.30;;
11533;SDS011;5823;50.588;8.462;2023-04-24T12:42:59;0.28;;;0.28;;
11533;SDS011;5823;50.588;8.462;2023-04-24T12:45:25;0.85;;;0.50;;
11533;SDS011;5823;50.588;8.462;2023-04-24T12:47:53;0.65;;;0.40;;
11533;SDS011;5823;50.588;8.462;2023-04-24T12:50:19;0.68;;;0.68;;
11533;SDS011;5823;50.588;8.462;2023-04-24T12:52:45;0.75;;;0.63;;
11533;SDS011;5823;50.588;8.462;2023-04-24T12:55:12;0.45;;;0.45;;
11533;SDS011;5823;50.588;8.462;2023-04-24T12:57:38;0.68;;;0.68;;
11533;SDS011;5823;50.588;8.462;2023-04-24T13:00:07;1.20;;;0.90;;
11533;SDS011;5823;50.588;8.462;2023-04-24T13:02:34;0.73;;;0.70;;
11533;SDS011;5823;50.588;8.462;2023-04-24T13:05:00;0.88;;;0.70;;
11533;SDS011;5823;50.588;8.462;2023-04-24T13:07:27;0.60;;;0.60;;
11533;SDS011;5823;50.588;8.462;2023-04-24T13:09:54;0.50;;;0.50;;
11533;SDS011;5823;50.588;8.462;2023-04-24T13:12:20;0.50;;;0.50;;
11533;SDS011;5823;50.588;8.462;2023-04-24T13:14:48;0.30;;;0.30;;
11533;SDS011;5823;50.588;8.462;2023-04-24T13:17:17;0.47;;;0.47;;
11533;SDS011;5823;50.588;8.462;2023-04-24T13:19:43;0.50;;;0.50;;
11533;SDS011;5823;50.588;8.462;2023-04-24T13:22:10;0.50;;;0.50;;
11533;SDS011;5823;50.588;8.462;2023-04-24T13:24:37;0.60;;;0.60;;
11533;SDS011;5823;50.588;8.462;2023-04-24T13:27:04;0.47;;;0.47;;
11533;SDS011;5823;50.588;8.462;2023-04-24T13:29:31;0.20;;;0.20;;
11533;SDS011;5823;50.588;8.462;2023-04-24T13:31:57;0.20;;;0.20;;
11533;SDS011;5823;50.588;8.462;2023-04-24T13:34:25;0.30;;;0.30;;
11533;SDS011;5823;50.588;8.462;2023-04-24T13:36:52;0.55;;;0.55;;
11533;SDS011;5823;50.588;8.462;2023-04-24T13:39:18;0.40;;;0.40;;
11533;SDS011;5823;50.588;8.462;2023-04-24T13:41:45;0.65;;;0.50;;
11533;SDS011;5823;50.588;8.462;2023-04-24T13:44:12;0.50;;;0.50;;
11533;SDS011;5823;50.588;8.462;2023-04-24T13:46:39;0.30;;;0.30;;
11533;SDS011;5823;50.588;8.462;2023-04-24T13:49:05;0.30;;;0.30;;
11533;SDS011;5823;50.588;8.462;2023-04-24T13:51:32;0.50;;;0.40;;
11533;SDS011;5823;50.588;8.462;2023-04-24T13:53:59;0.22;;;0.22;;
11533;SDS011;5823;50.588;8.462;2023-04-24T13:56:25;0.30;;;0.30;;
11533;SDS011;5823;50.588;8.462;2023-04-24T13:58:51;0.40;;;0.40;;
11533;SDS011;5823;50.588;8.462;2023-04-24T14:01:18;0.10;;;0.10;;
11533;SDS011;5823;50.588;8.462;2023-04-24T14:03:46;0.22;;;0.22;;
11533;SDS011;5823;50.588;8.462;2023-04-24T14:06:12;0.20;;;0.20;;
11533;SDS011;5823;50.588;8.462;2023-04-24T14:08:40;0.30;;;0.30;;
11533;SDS011;5823;50.588;8.462;2023-04-24T14:11:06;0.38;;;0.38;;
11533;SDS011;5823;50.588;8.462;2023-04-24T14:13:32;0.30;;;0.30;;
11533;SDS011;5823;50.588;8.462;2023-04-24T14:15:58;0.28;;;0.28;;
11533;SDS011;5823;50.588;8.462;2023-04-24T14:18:25;0.47;;;0.47;;
11533;SDS011;5823;50.588;8.462;2023-04-24T14:20:51;0.60;;;0.60;;
11533;SDS011;5823;50.588;8.462;2023-04-24T14:23:18;0.50;;;0.40;;
11533;SDS011;5823;50.588;8.462;2023-04-24T14:25:46;0.68;;;0.60;;
11533;SDS011;5823;50.588;8.462;2023-04-24T14:28:15;0.57;;;0.40;;
11533;SDS011;5823;50.588;8.462;2023-04-24T14:30:42;1.00;;;0.90;;
11533;SDS011;5823;50.588;8.462;2023-04-24T14:33:08;0.77;;;0.77;;
11533;SDS011;5823;50.588;8.462;2023-04-24T14:35:35;0.52;;;0.52;;
11533;SDS011;5823;50.588;8.462;2023-04-24T14:38:01;0.70;;;0.70;;
11533;SDS011;5823;50.588;8.462;2023-04-24T14:40:28;0.50;;;0.50;;
11533;SDS011;5823;50.588;8.462;2023-04-24T14:42:56;0.52;;;0.52;;
11533;SDS011;5823;50.588;8.462;2023-04-24T14:45:23;0.85;;;0.68;;
11533;SDS011;5823;50.588;8.462;2023-04-24T14:47:49;1.30;;;0.80;;
11533;SDS011;5823;50.588;8.462;2023-04-24T14:50:15;1.08;;;0.70;;
11533;SDS011;5823;50.588;8.462;2023-04-24T14:52:41;0.88;;;0.88;;
11533;SDS011;5823;50.588;8.462;2023-04-24T14:55:08;0.90;;;0.90;;
11533;SDS011;5823;50.588;8.462;2023-04-24T14:57:34;0.98;;;0.82;;
11533;SDS011;5823;50.588;8.462;2023-04-24T15:00:03;1.05;;;0.95;;
11533;SDS011;5823;50.588;8.462;2023-04-24T15:02:31;1.38;;;1.17;;